createdAt,value
2023-05-19T00:01:17.027Z,6.53
2023-05-19T00:03:52.553Z,7.88
2023-05-19T00:06:24.989Z,5.80
2023-05-19T00:08:58.178Z,8.48
2023-05-19T00:11:26.945Z,8.93
2023-05-19T00:13:58.167Z,8.75
2023-05-19T00:16:26.398Z,7.95
2023-05-19T00:18:54.285Z,9.05
2023-05-19T00:21:21.299Z,7.47
2023-05-19T00:23:47.988Z,7.93
2023-05-19T00:26:14.759Z,10.00
2023-05-19T00:31:17.899Z,7.70
2023-05-19T00:33:44.757Z,6.28
2023-05-19T00:36:11.780Z,8.43
2023-05-19T00:38:38.612Z,8.45
2023-05-19T00:41:06.416Z,5.50
2023-05-19T00:43:36.450Z,8.80
2023-05-19T00:46:03.639Z,8.90
2023-05-19T00:48:30.409Z,9.60
2023-05-19T00:51:04.121Z,7.68
2023-05-19T00:53:32.161Z,9.65
2023-05-19T00:55:59.812Z,10.20
2023-05-19T00:58:30.777Z,8.57
2023-05-19T01:01:05.271Z,7.70
2023-05-19T01:03:35.635Z,9.32
2023-05-19T01:06:07.456Z,6.43
2023-05-19T01:08:36.256Z,8.52
2023-05-19T01:11:07.318Z,8.15
2023-05-19T01:13:35.936Z,11.65
2023-05-19T01:16:17.723Z,9.90
2023-05-19T01:18:56.709Z,7.95
2023-05-19T01:22:01.150Z,8.05
2023-05-19T01:25:02.916Z,10.07
2023-05-19T01:27:42.303Z,9.38
2023-05-19T01:30:26.771Z,8.18
2023-05-19T01:32:58.422Z,8.45
2023-05-19T01:35:26.245Z,7.45
2023-05-19T01:37:57.445Z,12.50
2023-05-19T01:40:25.700Z,11.40
2023-05-19T01:42:58.709Z,11.02
2023-05-19T01:45:27.849Z,7.55
2023-05-19T01:47:57.694Z,9.68
2023-05-19T01:50:25.121Z,7.20
2023-05-19T01:52:52.335Z,7.65
2023-05-19T01:55:19.367Z,9.88
2023-05-19T01:57:57.897Z,6.05
2023-05-19T02:01:00.189Z,8.52
2023-05-19T02:03:42.232Z,9.15
2023-05-19T02:06:27.647Z,6.32
2023-05-19T02:09:10.707Z,6.82
2023-05-19T02:11:42.036Z,7.55
2023-05-19T02:14:16.088Z,9.88
2023-05-19T02:16:46.303Z,8.00
2023-05-19T02:19:32.112Z,8.55
2023-05-19T02:21:58.918Z,7.95
2023-05-19T02:24:26.083Z,7.95
2023-05-19T02:26:54.056Z,9.07
2023-05-19T02:29:21.397Z,9.75
2023-05-19T02:31:50.583Z,10.48
2023-05-19T02:34:18.979Z,7.50
2023-05-19T02:36:45.678Z,8.60
2023-05-19T02:39:13.001Z,7.90
2023-05-19T02:41:39.722Z,12.52
2023-05-19T02:44:06.462Z,9.40
2023-05-19T02:46:35.857Z,10.15
2023-05-19T02:49:02.554Z,10.57
2023-05-19T02:51:29.297Z,8.85
2023-05-19T02:53:56.125Z,9.45
2023-05-19T02:56:22.852Z,7.30
2023-05-19T02:58:49.520Z,7.40
2023-05-19T03:01:16.599Z,9.43
2023-05-19T03:03:43.548Z,8.07
2023-05-19T03:06:10.398Z,10.13
2023-05-19T03:08:42.319Z,11.00
2023-05-19T03:11:09.319Z,7.90
2023-05-19T03:13:36.170Z,9.25
2023-05-19T03:16:03.249Z,9.32
2023-05-19T03:18:30.059Z,11.05
2023-05-19T03:20:56.831Z,9.10
2023-05-19T03:23:23.543Z,8.70
2023-05-19T03:25:50.835Z,10.57
2023-05-19T03:28:18.062Z,9.77
2023-05-19T03:30:45.059Z,8.80
2023-05-19T03:33:17.107Z,11.05
2023-05-19T03:35:46.931Z,9.82
2023-05-19T03:38:14.628Z,9.95
2023-05-19T03:40:51.124Z,9.52
2023-05-19T03:43:18.060Z,7.95
2023-05-19T03:45:49.611Z,12.10
2023-05-19T03:48:36.413Z,11.38
2023-05-19T03:51:18.170Z,9.50
2023-05-19T03:53:47.008Z,11.40
2023-05-19T03:56:14.026Z,10.63
2023-05-19T03:58:44.863Z,9.13
2023-05-19T04:01:11.827Z,9.73
2023-05-19T04:03:38.654Z,9.48
2023-05-19T04:06:05.828Z,10.85
2023-05-19T04:08:32.578Z,8.98
2023-05-19T04:10:59.265Z,12.32
2023-05-19T04:13:26.078Z,8.60
2023-05-19T04:15:53.141Z,12.95
2023-05-19T04:18:19.948Z,11.10
2023-05-19T04:20:46.675Z,11.25
2023-05-19T04:23:13.356Z,11.20
2023-05-19T04:25:40.946Z,8.65
2023-05-19T04:28:07.818Z,11.00
2023-05-19T04:30:34.752Z,11.85
2023-05-19T04:33:03.820Z,7.38
2023-05-19T04:35:31.382Z,12.63
2023-05-19T04:38:00.046Z,13.98
2023-05-19T04:40:34.257Z,10.88
2023-05-19T04:43:02.368Z,11.82
2023-05-19T04:45:30.205Z,8.82
2023-05-19T04:48:00.214Z,12.10
2023-05-19T04:50:28.652Z,12.32
2023-05-19T04:52:59.158Z,9.35
2023-05-19T04:55:27.067Z,9.38
2023-05-19T04:57:54.522Z,10.93
2023-05-19T05:00:21.989Z,12.43
2023-05-19T05:02:57.791Z,10.75
2023-05-19T05:05:26.653Z,10.38
2023-05-19T05:07:54.174Z,10.80
2023-05-19T05:10:22.901Z,8.95
2023-05-19T05:12:50.795Z,8.95
2023-05-19T05:15:18.116Z,13.10
2023-05-19T05:17:48.076Z,12.57
2023-05-19T05:20:15.468Z,11.00
2023-05-19T05:22:42.579Z,8.85
2023-05-19T05:25:10.777Z,9.05
2023-05-19T05:27:38.326Z,12.43
2023-05-19T05:30:07.391Z,9.85
2023-05-19T05:32:34.422Z,11.45
2023-05-19T05:35:03.283Z,11.45
2023-05-19T05:37:31.261Z,11.93
2023-05-19T05:39:57.967Z,8.65
2023-05-19T05:42:25.336Z,9.82
2023-05-19T05:44:53.067Z,9.02
2023-05-19T05:47:20.174Z,9.85
2023-05-19T05:49:48.735Z,8.82
2023-05-19T05:52:22.029Z,8.60
2023-05-19T05:54:49.291Z,9.57
2023-05-19T05:57:18.896Z,12.68
2023-05-19T05:59:47.145Z,9.55
2023-05-19T06:02:14.567Z,9.07
2023-05-19T06:04:41.877Z,7.70
2023-05-19T06:07:08.926Z,17.73
2023-05-19T06:09:38.107Z,8.93
2023-05-19T06:12:06.851Z,8.85
2023-05-19T06:14:38.984Z,11.88
2023-05-19T06:17:14.909Z,9.90
2023-05-19T06:19:41.885Z,10.65
2023-05-19T06:22:09.167Z,8.00
2023-05-19T06:24:37.866Z,11.18
2023-05-19T06:27:06.193Z,10.18
2023-05-19T06:29:33.033Z,12.32
2023-05-19T06:32:03.294Z,10.75
2023-05-19T06:34:30.275Z,10.20
2023-05-19T06:36:56.992Z,6.63
2023-05-19T06:39:24.898Z,8.30
2023-05-19T06:41:51.642Z,9.05
2023-05-19T06:44:44.069Z,9.80
2023-05-19T06:47:12.148Z,8.35
2023-05-19T06:49:38.988Z,11.77
2023-05-19T06:52:06.639Z,8.10
2023-05-19T06:54:33.465Z,12.00
2023-05-19T06:57:00.181Z,7.90
2023-05-19T06:59:27.030Z,8.25
2023-05-19T07:01:53.859Z,7.97
2023-05-19T07:04:20.756Z,9.38
2023-05-19T07:06:50.327Z,7.55
2023-05-19T07:09:19.076Z,9.27
2023-05-19T07:11:46.990Z,9.02
2023-05-19T07:14:14.902Z,6.55
2023-05-19T07:16:41.660Z,7.70
2023-05-19T07:19:09.401Z,8.43
2023-05-19T07:21:36.261Z,7.65
2023-05-19T07:24:02.997Z,9.45
2023-05-19T07:26:32.212Z,8.00
2023-05-19T07:28:58.990Z,8.27
2023-05-19T07:31:26.015Z,7.55
2023-05-19T07:33:54.600Z,6.45
2023-05-19T07:36:21.756Z,8.98
2023-05-19T07:38:48.422Z,6.47
2023-05-19T07:41:15.179Z,6.47
2023-05-19T07:43:42.546Z,9.32
2023-05-19T07:46:09.414Z,6.55
2023-05-19T07:48:37.439Z,6.93
2023-05-19T07:51:07.686Z,7.57
2023-05-19T07:53:34.414Z,6.18
2023-05-19T07:56:01.055Z,9.60
2023-05-19T07:58:27.790Z,6.60
2023-05-19T08:00:58.809Z,7.70
2023-05-19T08:03:26.678Z,6.57
2023-05-19T08:05:53.540Z,6.45
2023-05-19T08:08:20.304Z,7.22
2023-05-19T08:10:46.979Z,8.43
2023-05-19T08:13:13.662Z,5.72
2023-05-19T08:15:42.876Z,9.25
2023-05-19T08:18:09.788Z,7.40
2023-05-19T08:20:37.556Z,7.80
2023-05-19T08:23:04.342Z,7.13
2023-05-19T08:25:31.317Z,6.88
2023-05-19T08:27:58.166Z,7.22
2023-05-19T08:30:25.051Z,7.13
2023-05-19T08:32:51.897Z,8.57
2023-05-19T08:35:18.661Z,9.13
2023-05-19T08:37:45.361Z,8.43
2023-05-19T08:40:17.560Z,6.68
2023-05-19T08:42:47.838Z,6.75
2023-05-19T08:45:14.742Z,7.65
2023-05-19T08:47:42.455Z,8.75
2023-05-19T08:50:11.442Z,5.75
2023-05-19T08:52:57.852Z,6.70
2023-05-19T08:58:03.725Z,7.30
2023-05-19T09:00:30.964Z,6.40
2023-05-19T09:03:10.804Z,8.85
2023-05-19T09:05:44.064Z,8.65
2023-05-19T09:08:11.257Z,5.22
2023-05-19T09:10:37.999Z,8.52
2023-05-19T09:13:05.624Z,6.90
2023-05-19T09:15:34.095Z,8.18
2023-05-19T09:18:06.725Z,7.50
2023-05-19T09:20:47.096Z,5.30
2023-05-19T09:23:17.055Z,6.38
2023-05-19T09:25:51.044Z,6.65
2023-05-19T09:28:31.176Z,6.82
2023-05-19T09:31:06.199Z,6.72
2023-05-19T09:33:35.056Z,7.37
2023-05-19T09:36:01.965Z,7.53
2023-05-19T09:38:31.789Z,8.07
2023-05-19T09:41:00.014Z,9.73
2023-05-19T09:43:30.976Z,6.28
2023-05-19T09:46:03.623Z,6.07
2023-05-19T09:48:30.545Z,6.65
2023-05-19T09:50:58.987Z,6.80
2023-05-19T09:53:25.981Z,5.88
2023-05-19T09:55:59.451Z,5.30
2023-05-19T09:58:26.602Z,8.13
2023-05-19T10:00:54.880Z,6.00
2023-05-19T10:03:26.299Z,7.13
2023-05-19T10:05:53.854Z,4.80
2023-05-19T10:08:22.726Z,6.03
2023-05-19T10:10:49.651Z,7.80
2023-05-19T10:13:16.765Z,5.75
2023-05-19T10:15:57.343Z,6.63
2023-05-19T10:18:26.599Z,11.05
2023-05-19T10:20:54.339Z,8.55
2023-05-19T10:23:22.282Z,5.78
2023-05-19T10:25:51.265Z,8.15
2023-05-19T10:28:21.132Z,8.80
2023-05-19T10:30:51.614Z,8.35
2023-05-19T10:33:21.142Z,7.45
2023-05-19T10:36:08.390Z,4.18
2023-05-19T10:38:37.293Z,3.47
2023-05-19T10:41:16.934Z,7.22
2023-05-19T10:44:05.460Z,5.40
2023-05-19T10:46:32.278Z,7.82
2023-05-19T10:48:59.534Z,6.20
2023-05-19T10:51:33.279Z,5.88
2023-05-19T10:54:08.817Z,7.22
2023-05-19T10:56:42.274Z,4.95
2023-05-19T10:59:33.018Z,5.28
2023-05-19T11:02:08.316Z,5.55
2023-05-19T11:04:51.079Z,6.70
2023-05-19T11:07:19.843Z,7.65
2023-05-19T11:09:52.972Z,5.13
2023-05-19T11:12:22.101Z,5.07
2023-05-19T11:14:49.081Z,5.57
2023-05-19T11:17:16.325Z,5.15
2023-05-19T11:19:54.618Z,6.90
2023-05-19T11:22:26.238Z,5.88
2023-05-19T11:24:55.991Z,5.88
2023-05-19T11:27:35.146Z,5.28
2023-05-19T11:30:14.817Z,5.45
2023-05-19T11:32:42.881Z,4.65
2023-05-19T11:35:14.600Z,8.25
2023-05-19T11:37:43.000Z,6.85
2023-05-19T11:40:10.939Z,7.20
2023-05-19T11:42:37.764Z,10.50
2023-05-19T11:45:05.320Z,7.40
2023-05-19T11:47:46.037Z,7.70
2023-05-19T11:50:20.305Z,3.92
2023-05-19T11:52:47.662Z,8.02
2023-05-19T11:55:24.186Z,7.15
2023-05-19T12:00:31.214Z,6.25
2023-05-19T12:02:58.265Z,6.57
2023-05-19T12:05:26.991Z,6.22
2023-05-19T12:07:54.276Z,4.38
2023-05-19T12:10:29.016Z,7.07
2023-05-19T12:12:57.208Z,6.85
2023-05-19T12:15:25.203Z,3.58
2023-05-19T12:17:57.678Z,6.35
2023-05-19T12:20:25.098Z,7.85
2023-05-19T12:22:52.941Z,5.85
2023-05-19T12:25:20.485Z,5.15
2023-05-19T12:27:49.524Z,4.20
2023-05-19T12:30:16.867Z,6.30
2023-05-19T12:32:43.990Z,5.82
2023-05-19T12:35:10.992Z,4.68
2023-05-19T12:37:43.670Z,6.65
2023-05-19T12:40:16.606Z,6.00
2023-05-19T12:42:46.703Z,6.28
2023-05-19T12:45:13.419Z,6.40
2023-05-19T12:47:40.244Z,8.13
2023-05-19T12:50:08.746Z,5.22
2023-05-19T12:52:45.790Z,5.10
2023-05-19T12:55:16.660Z,5.78
2023-05-19T12:57:48.723Z,6.25
2023-05-19T13:00:25.103Z,4.07
2023-05-19T13:02:56.218Z,4.78
2023-05-19T13:05:23.112Z,7.03
2023-05-19T13:08:04.662Z,6.07
2023-05-19T13:10:32.902Z,4.70
2023-05-19T13:13:00.535Z,5.60
2023-05-19T13:15:36.470Z,5.93
2023-05-19T13:20:32.005Z,5.25
2023-05-19T13:22:59.547Z,4.65
2023-05-19T13:25:26.754Z,5.65
2023-05-19T13:27:59.322Z,3.92
2023-05-19T13:30:26.064Z,5.38
2023-05-19T13:32:52.840Z,5.55
2023-05-19T13:35:20.159Z,3.30
2023-05-19T13:37:46.884Z,4.63
2023-05-19T13:40:13.770Z,5.45
2023-05-19T13:42:40.818Z,3.58
2023-05-19T13:45:08.291Z,4.60
2023-05-19T13:47:35.214Z,3.97
2023-05-19T13:50:04.517Z,4.40
2023-05-19T13:52:31.448Z,6.50
2023-05-19T13:54:58.173Z,3.08
2023-05-19T13:57:26.320Z,3.83
2023-05-19T14:00:02.649Z,4.40
2023-05-19T14:02:39.523Z,3.73
2023-05-19T14:05:07.406Z,4.50
2023-05-19T14:07:37.109Z,5.93
2023-05-19T14:10:06.665Z,5.18
2023-05-19T14:12:49.306Z,4.95
2023-05-19T14:15:22.191Z,6.57
2023-05-19T14:17:49.237Z,6.47
2023-05-19T14:20:16.181Z,14.57
2023-05-19T14:22:42.935Z,5.13
2023-05-19T14:25:12.822Z,5.60
2023-05-19T14:27:42.381Z,3.83
2023-05-19T14:30:09.567Z,5.25
2023-05-19T14:32:36.367Z,4.63
2023-05-19T14:35:03.573Z,6.15
2023-05-19T14:37:31.882Z,4.95
2023-05-19T14:39:58.935Z,2.95
2023-05-19T14:42:25.622Z,3.95
2023-05-19T14:44:52.254Z,5.30
2023-05-19T14:47:18.986Z,5.55
2023-05-19T14:49:45.806Z,5.72
2023-05-19T14:52:12.447Z,4.95
2023-05-19T14:54:39.179Z,5.78
2023-05-19T14:57:07.289Z,4.30
2023-05-19T14:59:37.481Z,5.13
2023-05-19T15:02:05.272Z,5.32
2023-05-19T15:04:31.983Z,4.28
2023-05-19T15:09:32.346Z,3.58
2023-05-19T15:12:01.249Z,3.92
2023-05-19T15:14:30.270Z,4.45
2023-05-19T15:16:57.805Z,4.93
2023-05-19T15:19:24.811Z,7.15
2023-05-19T15:21:51.769Z,3.05
2023-05-19T15:24:19.164Z,3.80
2023-05-19T15:26:45.910Z,4.50
2023-05-19T15:29:12.548Z,6.78
2023-05-19T15:31:39.364Z,9.23
2023-05-19T15:34:06.263Z,5.13
2023-05-19T15:36:32.927Z,4.53
2023-05-19T15:38:59.574Z,3.55
2023-05-19T15:41:26.796Z,3.75
2023-05-19T15:43:53.697Z,3.97
2023-05-19T15:46:20.431Z,4.80
2023-05-19T15:48:47.179Z,3.95
2023-05-19T15:51:14.001Z,3.88
2023-05-19T15:53:40.653Z,5.80
2023-05-19T15:56:07.477Z,4.70
2023-05-19T15:58:34.107Z,4.65
2023-05-19T16:01:01.261Z,6.28
2023-05-19T16:03:28.021Z,4.47
2023-05-19T16:05:54.878Z,3.45
2023-05-19T16:08:21.536Z,6.93
2023-05-19T16:10:48.264Z,6.53
2023-05-19T16:13:15.072Z,6.38
2023-05-19T16:15:41.867Z,5.20
2023-05-19T16:18:08.661Z,4.68
2023-05-19T16:20:35.487Z,3.55
2023-05-19T16:23:03.170Z,3.78
2023-05-19T16:25:30.164Z,3.80
2023-05-19T16:27:57.058Z,4.95
2023-05-19T16:30:26.205Z,5.05
2023-05-19T16:32:55.675Z,5.00
2023-05-19T16:35:22.695Z,5.93
2023-05-19T16:37:49.609Z,3.08
2023-05-19T16:40:16.383Z,5.32
2023-05-19T16:42:43.081Z,3.92
2023-05-19T16:45:10.200Z,3.92
2023-05-19T16:47:36.990Z,4.90
2023-05-19T16:50:04.203Z,5.95
2023-05-19T16:52:30.920Z,3.30
2023-05-19T16:54:57.572Z,4.32
2023-05-19T16:57:24.275Z,4.53
2023-05-19T16:59:50.996Z,5.95
2023-05-19T17:02:17.724Z,3.15
2023-05-19T17:04:44.540Z,4.82
2023-05-19T17:07:17.554Z,3.90
2023-05-19T17:09:44.687Z,5.47
2023-05-19T17:12:11.336Z,6.75
2023-05-19T17:14:38.007Z,3.00
2023-05-19T17:17:04.859Z,4.20
2023-05-19T17:19:31.640Z,3.90
2023-05-19T17:21:58.411Z,3.72
2023-05-19T17:24:25.119Z,7.03
2023-05-19T17:26:52.435Z,4.97
2023-05-19T17:29:19.149Z,8.60
2023-05-19T17:31:45.949Z,5.20
2023-05-19T17:34:12.702Z,4.40
2023-05-19T17:36:39.366Z,3.30
2023-05-19T17:39:05.987Z,3.53
2023-05-19T17:41:32.718Z,5.88
2023-05-19T17:43:59.442Z,3.78
2023-05-19T17:46:26.381Z,3.40
2023-05-19T17:48:52.996Z,5.75
2023-05-19T17:51:19.862Z,3.75
2023-05-19T17:53:46.741Z,4.47
2023-05-19T17:56:14.191Z,4.75
2023-05-19T17:58:41.444Z,4.28
2023-05-19T18:01:08.726Z,3.50
2023-05-19T18:03:35.867Z,5.35
2023-05-19T18:06:02.960Z,2.33
2023-05-19T18:08:31.059Z,3.30
2023-05-19T18:10:58.200Z,6.53
2023-05-19T18:13:27.206Z,4.10
2023-05-19T18:15:53.992Z,5.07
2023-05-19T18:18:20.780Z,4.68
2023-05-19T18:20:48.196Z,4.40
2023-05-19T18:23:14.844Z,3.72
2023-05-19T18:25:41.524Z,2.42
2023-05-19T18:28:08.223Z,4.82
2023-05-19T18:30:35.504Z,2.78
2023-05-19T18:33:03.886Z,3.70
2023-05-19T18:35:31.006Z,2.53
2023-05-19T18:37:57.883Z,2.63
2023-05-19T18:40:24.683Z,5.90
2023-05-19T18:42:51.437Z,3.60
2023-05-19T18:45:18.215Z,3.17
2023-05-19T18:47:44.999Z,2.88
2023-05-19T18:50:11.683Z,5.00
2023-05-19T18:52:38.366Z,4.75
2023-05-19T18:55:05.572Z,3.10
2023-05-19T18:57:32.313Z,3.00
2023-05-19T18:59:58.987Z,2.42
2023-05-19T19:02:26.807Z,3.70
2023-05-19T19:04:53.586Z,4.70
2023-05-19T19:07:20.280Z,3.25
2023-05-19T19:09:46.965Z,5.90
2023-05-19T19:12:13.656Z,3.40
2023-05-19T19:14:40.356Z,3.28
2023-05-19T19:17:07.117Z,4.05
2023-05-19T19:19:33.878Z,2.35
2023-05-19T19:22:00.742Z,2.58
2023-05-19T19:24:28.478Z,4.40
2023-05-19T19:26:55.240Z,3.17
2023-05-19T19:29:22.035Z,3.65
2023-05-19T19:31:48.996Z,2.20
2023-05-19T19:34:15.917Z,3.88
2023-05-19T19:36:43.883Z,4.38
2023-05-19T19:39:10.617Z,4.10
2023-05-19T19:41:37.573Z,3.30
2023-05-19T19:44:04.433Z,3.78
2023-05-19T19:46:31.182Z,3.38
2023-05-19T19:49:00.723Z,2.83
2023-05-19T19:51:28.434Z,4.35
2023-05-19T19:53:55.191Z,4.50
2023-05-19T19:56:24.503Z,3.47
2023-05-19T19:58:51.239Z,2.92
2023-05-19T20:01:20.400Z,4.85
2023-05-19T20:03:48.022Z,5.15
2023-05-19T20:06:15.044Z,4.25
2023-05-19T20:08:41.819Z,7.05
2023-05-19T20:11:09.245Z,5.55
2023-05-19T20:13:35.932Z,4.05
2023-05-19T20:16:02.738Z,4.00
2023-05-19T20:18:29.934Z,5.35
2023-05-19T20:20:56.988Z,3.55
2023-05-19T20:23:23.817Z,6.03
2023-05-19T20:26:02.938Z,3.97
2023-05-19T20:28:36.518Z,5.22
2023-05-19T20:31:03.247Z,4.32
2023-05-19T20:33:29.926Z,5.20
2023-05-19T20:35:56.545Z,4.53
2023-05-19T20:38:23.206Z,4.72
2023-05-19T20:40:49.948Z,3.33
2023-05-19T20:43:19.678Z,3.67
2023-05-19T20:45:49.195Z,3.90
2023-05-19T20:48:16.119Z,2.67
2023-05-19T20:50:42.904Z,4.70
2023-05-19T20:53:09.646Z,5.57
2023-05-19T20:55:38.380Z,4.07
2023-05-19T20:58:05.393Z,2.88
2023-05-19T21:00:32.592Z,4.38
2023-05-19T21:02:59.710Z,4.32
2023-05-19T21:05:26.406Z,4.35
2023-05-19T21:07:54.851Z,3.47
2023-05-19T21:10:21.583Z,4.35
2023-05-19T21:12:48.210Z,3.45
2023-05-19T21:15:14.906Z,5.32
2023-05-19T21:17:41.573Z,3.55
2023-05-19T21:20:08.943Z,3.28
2023-05-19T21:22:35.959Z,3.92
2023-05-19T21:25:02.722Z,3.05
2023-05-19T21:27:29.894Z,3.20
2023-05-19T21:29:56.552Z,2.53
2023-05-19T21:32:23.224Z,2.22
2023-05-19T21:34:49.930Z,3.47
2023-05-19T21:37:17.634Z,5.13
2023-05-19T21:39:44.779Z,3.50
2023-05-19T21:42:11.505Z,2.58
2023-05-19T21:44:38.213Z,3.03
2023-05-19T21:47:04.944Z,3.13
2023-05-19T21:49:31.676Z,2.38
2023-05-19T21:51:58.590Z,2.63
2023-05-19T21:54:25.382Z,2.17
2023-05-19T21:56:54.485Z,4.35
2023-05-19T21:59:23.242Z,2.70
2023-05-19T22:01:50.438Z,4.05
2023-05-19T22:04:18.487Z,1.88
2023-05-19T22:06:45.512Z,2.05
2023-05-19T22:09:12.849Z,2.05
2023-05-19T22:11:39.881Z,2.50
2023-05-19T22:14:06.940Z,2.22
2023-05-19T22:16:34.109Z,2.55
2023-05-19T22:19:00.987Z,2.78
2023-05-19T22:21:27.916Z,2.97
2023-05-19T22:23:54.648Z,2.55
2023-05-19T22:26:22.038Z,2.00
2023-05-19T22:28:50.011Z,2.17
2023-05-19T22:31:16.768Z,3.60
2023-05-19T22:33:43.544Z,2.97
2023-05-19T22:36:11.069Z,2.90
2023-05-19T22:38:37.979Z,2.47
2023-05-19T22:41:04.804Z,2.25
2023-05-19T22:43:31.507Z,2.55
2023-05-19T22:45:58.242Z,3.25
2023-05-19T22:48:24.930Z,2.17
2023-05-19T22:50:51.608Z,2.22
2023-05-19T22:53:18.258Z,1.58
2023-05-19T22:55:47.502Z,3.05
2023-05-19T22:58:14.250Z,2.63
2023-05-19T23:00:40.970Z,3.70
2023-05-19T23:03:07.749Z,2.55
2023-05-19T23:05:34.749Z,2.05
2023-05-19T23:08:01.792Z,1.98
2023-05-19T23:10:28.465Z,3.25
2023-05-19T23:12:55.229Z,1.48
2023-05-19T23:15:24.086Z,2.20
2023-05-19T23:17:50.887Z,3.97
2023-05-19T23:20:17.618Z,4.18
2023-05-19T23:22:44.354Z,2.05
2023-05-19T23:25:11.203Z,2.97
2023-05-19T23:27:38.006Z,1.92
2023-05-19T23:30:05.258Z,2.25
2023-05-19T23:32:32.186Z,1.80
2023-05-19T23:35:12.573Z,3.95
2023-05-19T23:37:39.363Z,1.85
2023-05-19T23:40:08.106Z,2.00
2023-05-19T23:42:35.381Z,3.00
2023-05-19T23:45:02.613Z,2.55
2023-05-19T23:47:29.306Z,1.88
2023-05-19T23:49:56.127Z,1.70
2023-05-19T23:52:22.815Z,2.33
2023-05-19T23:54:49.591Z,3.42
2023-05-19T23:57:16.447Z,2.33
2023-05-19T23:59:43.164Z,2.10
